createdAt,value
2018-11-13T00:03:38.774Z,99.90
2018-11-13T00:09:45.377Z,99.90
2018-11-13T00:12:43.599Z,99.90
2018-11-13T00:27:59.436Z,99.90
2018-11-13T00:30:38.186Z,99.90
2018-11-13T00:52:38.032Z,99.90
2018-11-13T00:55:36.512Z,99.90
2018-11-13T00:58:16.874Z,99.90
2018-11-13T01:04:26.766Z,99.90
2018-11-13T01:07:02.154Z,99.90
2018-11-13T01:09:55.601Z,99.90
2018-11-13T01:12:42.364Z,99.90
2018-11-13T01:18:44.298Z,99.90
2018-11-13T01:24:33.879Z,99.90
2018-11-13T01:32:27.839Z,99.90
2018-11-13T01:35:35.865Z,99.90
2018-11-13T01:38:07.827Z,99.90
2018-11-13T01:40:47.214Z,99.90
2018-11-13T01:43:23.898Z,99.90
2018-11-13T01:46:26.498Z,99.90
2018-11-13T01:52:21.992Z,99.90
2018-11-13T01:55:04.754Z,99.90
2018-11-13T01:57:42.098Z,99.90
2018-11-13T02:00:30.556Z,99.90
2018-11-13T02:03:10.421Z,99.90
2018-11-13T02:05:56.636Z,99.90
2018-11-13T02:09:01.802Z,99.90
2018-11-13T02:11:47.932Z,99.90
2018-11-13T02:14:25.642Z,99.90
2018-11-13T02:17:13.812Z,99.90
2018-11-13T02:19:55.800Z,99.90
2018-11-13T02:22:32.368Z,99.90
2018-11-13T02:25:19.906Z,99.90
2018-11-13T02:27:59.082Z,99.90
2018-11-13T02:30:45.958Z,99.90
2018-11-13T02:33:29.285Z,99.90
2018-11-13T02:36:15.510Z,99.90
2018-11-13T02:38:54.594Z,99.90
2018-11-13T02:41:26.895Z,99.90
2018-11-13T02:44:04.837Z,99.90
2018-11-13T02:46:45.897Z,99.90
2018-11-13T02:49:26.025Z,99.90
2018-11-13T02:52:10.027Z,99.90
2018-11-13T02:58:22.574Z,99.90
2018-11-13T03:01:08.708Z,99.90
2018-11-13T03:03:46.760Z,99.90
2018-11-13T03:06:22.129Z,99.90
2018-11-13T03:09:08.118Z,99.90
2018-11-13T03:11:46.114Z,99.90
2018-11-13T03:14:30.439Z,99.90
2018-11-13T03:17:04.131Z,99.90
2018-11-13T03:19:44.672Z,99.90
2018-11-13T03:22:32.933Z,99.90
2018-11-13T03:25:22.499Z,99.90
2018-11-13T03:28:05.317Z,99.90
2018-11-13T03:30:41.964Z,99.90
2018-11-13T03:33:24.264Z,99.90
2018-11-13T03:35:56.535Z,99.90
2018-11-13T03:38:27.936Z,99.90
2018-11-13T03:40:58.721Z,99.90
2018-11-13T03:43:28.622Z,99.90
2018-11-13T03:46:00.845Z,99.90
2018-11-13T03:48:30.756Z,99.90
2018-11-13T03:51:00.624Z,99.90
2018-11-13T03:53:30.897Z,99.90
2018-11-13T03:56:01.938Z,99.90
2018-11-13T03:58:38.995Z,99.90
2018-11-13T04:01:09.243Z,99.90
2018-11-13T04:03:39.457Z,99.90
2018-11-13T04:06:10.788Z,99.90
2018-11-13T04:08:41.142Z,99.90
2018-11-13T04:11:11.408Z,99.90
2018-11-13T04:13:43.022Z,99.90
2018-11-13T04:16:12.910Z,99.90
2018-11-13T04:18:43.026Z,99.90
2018-11-13T04:21:13.206Z,99.90
2018-11-13T04:23:56.601Z,99.90
2018-11-13T04:26:26.447Z,99.90
2018-11-13T04:29:01.764Z,99.90
2018-11-13T04:31:31.602Z,99.90
2018-11-13T04:34:02.643Z,99.90
2018-11-13T04:36:32.474Z,99.90
2018-11-13T04:39:02.718Z,99.90
2018-11-13T04:41:33.863Z,99.90
2018-11-13T04:44:03.896Z,99.90
2018-11-13T04:46:34.761Z,99.90
2018-11-13T04:49:18.013Z,99.90
2018-11-13T04:51:49.779Z,99.90
2018-11-13T04:54:21.787Z,99.90
2018-11-13T04:56:51.753Z,99.90
2018-11-13T04:59:22.233Z,99.90
2018-11-13T05:02:11.204Z,99.90
2018-11-13T05:04:55.511Z,99.90
2018-11-13T05:07:42.936Z,99.90
2018-11-13T05:10:26.218Z,99.90
2018-11-13T05:13:06.873Z,99.90
2018-11-13T05:15:36.730Z,99.90
2018-11-13T05:18:21.352Z,99.90
2018-11-13T05:20:54.133Z,99.90
2018-11-13T05:23:30.967Z,99.90
2018-11-13T05:26:03.507Z,99.90
2018-11-13T05:28:33.326Z,99.90
2018-11-13T05:31:03.081Z,99.90
2018-11-13T05:33:32.898Z,99.90
2018-11-13T05:36:21.788Z,99.90
2018-11-13T05:38:58.617Z,99.90
2018-11-13T05:41:33.510Z,99.90
2018-11-13T05:44:03.614Z,99.90
2018-11-13T05:46:35.933Z,99.90
2018-11-13T05:49:06.607Z,99.90
2018-11-13T05:51:40.518Z,99.90
2018-11-13T05:54:13.111Z,99.90
2018-11-13T05:56:58.341Z,99.90
2018-11-13T05:59:28.338Z,99.90
2018-11-13T06:02:00.778Z,99.90
2018-11-13T06:04:31.648Z,99.90
2018-11-13T06:07:01.656Z,99.90
2018-11-13T06:09:37.590Z,99.90
2018-11-13T06:12:07.993Z,99.90
2018-11-13T06:14:38.782Z,99.90
2018-11-13T06:17:12.235Z,99.90
2018-11-13T06:19:59.409Z,99.90
2018-11-13T06:22:32.106Z,99.90
2018-11-13T06:25:19.122Z,99.90
2018-11-13T06:28:06.326Z,99.90
2018-11-13T06:30:37.898Z,99.90
2018-11-13T06:33:07.929Z,99.90
2018-11-13T06:35:41.084Z,99.90
2018-11-13T06:38:11.616Z,99.90
2018-11-13T06:40:42.330Z,99.90
2018-11-13T06:43:12.067Z,99.90
2018-11-13T06:45:49.092Z,99.90
2018-11-13T06:48:20.390Z,99.90
2018-11-13T06:50:59.477Z,99.90
2018-11-13T06:53:44.098Z,99.90
2018-11-13T06:56:15.188Z,99.90
2018-11-13T06:58:48.277Z,99.90
2018-11-13T07:01:44.594Z,99.90
2018-11-13T07:04:27.421Z,99.90
2018-11-13T07:07:00.270Z,99.90
2018-11-13T07:09:35.116Z,99.90
2018-11-13T07:12:04.964Z,99.90
2018-11-13T07:14:35.575Z,99.90
2018-11-13T07:17:05.423Z,99.90
2018-11-13T07:19:41.106Z,99.90
2018-11-13T07:22:15.470Z,99.90
2018-11-13T07:24:59.963Z,99.90
2018-11-13T07:27:39.509Z,99.90
2018-11-13T07:30:27.895Z,99.90
2018-11-13T07:33:10.247Z,99.90
2018-11-13T07:36:02.629Z,99.90
2018-11-13T07:38:47.871Z,99.90
2018-11-13T07:41:28.915Z,99.90
2018-11-13T07:44:21.284Z,99.90
2018-11-13T07:49:51.112Z,99.90
2018-11-13T07:52:31.193Z,99.90
2018-11-13T07:58:19.268Z,99.90
2018-11-13T08:01:37.007Z,99.90
2018-11-13T08:04:17.394Z,99.90
2018-11-13T08:14:26.666Z,99.90
2018-11-13T08:17:35.848Z,99.90
2018-11-13T08:20:31.468Z,99.90
2018-11-13T08:23:21.122Z,99.90
2018-11-13T08:26:14.613Z,99.90
2018-11-13T08:29:01.097Z,99.90
2018-11-13T08:31:54.149Z,99.90
2018-11-13T08:34:39.532Z,99.90
2018-11-13T08:37:27.189Z,99.90
2018-11-13T08:43:24.920Z,99.90
2018-11-13T08:46:07.239Z,99.90
2018-11-13T08:48:47.975Z,99.90
2018-11-13T08:51:39.553Z,99.90
2018-11-13T08:59:48.314Z,99.90
2018-11-13T09:02:31.923Z,99.80
2018-11-13T09:05:16.429Z,99.50
2018-11-13T09:07:51.614Z,99.90
2018-11-13T09:10:22.427Z,99.80
2018-11-13T09:13:19.579Z,99.90
2018-11-13T09:15:59.126Z,99.90
2018-11-13T09:18:39.330Z,99.90
2018-11-13T09:21:10.480Z,99.90
2018-11-13T09:23:47.642Z,99.90
2018-11-13T09:26:28.857Z,99.30
2018-11-13T09:28:58.707Z,98.90
2018-11-13T09:31:33.962Z,98.90
2018-11-13T09:34:13.413Z,99.10
2018-11-13T09:36:49.784Z,99.10
2018-11-13T09:39:31.358Z,98.20
2018-11-13T09:42:14.427Z,98.10
2018-11-13T09:44:45.537Z,97.30
2018-11-13T09:47:29.573Z,97.50
2018-11-13T09:50:12.351Z,97.50
2018-11-13T09:52:43.001Z,97.40
2018-11-13T09:55:25.632Z,97.60
2018-11-13T09:58:11.521Z,97.80
2018-11-13T10:03:29.256Z,96.50
2018-11-13T10:06:06.958Z,97.10
2018-11-13T10:08:57.333Z,96.80
2018-11-13T10:15:16.475Z,96.70
2018-11-13T10:25:59.011Z,96.10
2018-11-13T10:28:48.539Z,95.90
2018-11-13T10:31:31.914Z,95.50
2018-11-13T10:34:04.555Z,95.80
2018-11-13T10:36:46.852Z,95.40
2018-11-13T10:39:32.475Z,95.30
2018-11-13T10:42:04.055Z,95.50
2018-11-13T10:44:34.572Z,95.20
2018-11-13T10:47:09.944Z,94.80
2018-11-13T10:49:40.603Z,95.00
2018-11-13T10:52:44.600Z,95.30
2018-11-13T10:55:29.841Z,94.50
2018-11-13T10:58:11.585Z,94.10
2018-11-13T11:00:53.917Z,94.40
2018-11-13T11:03:30.180Z,93.90
2018-11-13T11:06:01.480Z,94.30
2018-11-13T11:08:31.294Z,93.40
2018-11-13T11:11:01.067Z,93.30
2018-11-13T11:13:31.341Z,93.60
2018-11-13T11:16:01.489Z,93.00
2018-11-13T11:18:31.869Z,93.60
2018-11-13T11:21:18.880Z,93.70
2018-11-13T11:23:50.387Z,93.50
2018-11-13T11:26:21.543Z,93.70
2018-11-13T11:28:51.610Z,93.30
2018-11-13T11:31:26.914Z,93.10
2018-11-13T11:33:57.470Z,92.20
2018-11-13T11:36:27.686Z,92.80
2018-11-13T11:38:57.560Z,93.20
2018-11-13T11:41:27.360Z,92.90
2018-11-13T11:44:09.222Z,92.60
2018-11-13T11:46:42.540Z,92.80
2018-11-13T11:49:14.193Z,91.40
2018-11-13T11:51:44.623Z,90.90
2018-11-13T11:54:14.532Z,91.10
2018-11-13T11:56:44.505Z,90.70
2018-11-13T11:59:15.336Z,90.20
2018-11-13T12:02:05.151Z,90.70
2018-11-13T12:04:44.796Z,90.50
2018-11-13T12:07:15.168Z,90.60
2018-11-13T12:09:45.525Z,90.70
2018-11-13T12:12:15.826Z,89.60
2018-11-13T12:14:56.773Z,88.60
2018-11-13T12:17:26.672Z,89.30
2018-11-13T12:19:58.489Z,90.20
2018-11-13T12:22:28.658Z,90.20
2018-11-13T12:25:00.436Z,90.30
2018-11-13T12:27:33.746Z,90.60
2018-11-13T12:30:03.810Z,90.70
2018-11-13T12:32:34.075Z,90.70
2018-11-13T12:35:04.378Z,90.60
2018-11-13T12:37:34.292Z,91.30
2018-11-13T12:40:04.420Z,90.90
2018-11-13T12:42:34.229Z,91.00
2018-11-13T12:45:08.044Z,91.00
2018-11-13T12:50:40.806Z,90.50
2018-11-13T12:53:19.347Z,90.70
2018-11-13T12:55:51.839Z,90.60
2018-11-13T12:58:27.009Z,90.80
2018-11-13T13:01:09.711Z,91.10
2018-11-13T13:03:42.341Z,90.70
2018-11-13T13:06:12.629Z,90.50
2018-11-13T13:08:42.948Z,90.80
2018-11-13T13:11:28.481Z,90.40
2018-11-13T13:14:18.438Z,90.60
2018-11-13T13:17:03.065Z,90.20
2018-11-13T13:19:44.817Z,90.50
2018-11-13T13:22:20.829Z,90.60
2018-11-13T13:24:56.605Z,91.00
2018-11-13T13:27:27.424Z,90.80
2018-11-13T13:30:04.335Z,90.20
2018-11-13T13:32:34.306Z,90.50
2018-11-13T13:35:16.431Z,90.10
2018-11-13T13:38:05.780Z,90.70
2018-11-13T13:44:02.872Z,90.80
2018-11-13T13:49:51.412Z,90.30
2018-11-13T13:56:01.688Z,90.40
2018-11-13T14:02:32.476Z,90.60
2018-11-13T14:12:12.420Z,90.40
2018-11-13T14:15:21.418Z,90.20
2018-11-13T14:17:56.292Z,90.80
2018-11-13T14:20:29.009Z,91.00
2018-11-13T14:23:18.078Z,91.20
2018-11-13T14:25:56.529Z,91.40
2018-11-13T14:28:33.753Z,91.40
2018-11-13T14:31:05.713Z,91.40
2018-11-13T14:33:35.461Z,91.40
2018-11-13T14:36:05.547Z,91.90
2018-11-13T14:38:41.961Z,91.40
2018-11-13T14:41:41.962Z,91.60
2018-11-13T14:47:26.666Z,92.00
2018-11-13T14:50:05.142Z,92.70
2018-11-13T14:52:42.123Z,92.20
2018-11-13T14:55:42.496Z,92.00
2018-11-13T14:58:19.658Z,91.80
2018-11-13T15:01:01.686Z,92.10
2018-11-13T15:03:38.070Z,92.00
2018-11-13T15:06:18.042Z,92.20
2018-11-13T15:09:03.161Z,92.90
2018-11-13T15:11:53.574Z,92.90
2018-11-13T15:18:19.170Z,92.40
2018-11-13T15:21:01.826Z,93.20
2018-11-13T15:26:24.740Z,92.50
2018-11-13T15:29:00.619Z,92.70
2018-11-13T15:31:35.276Z,92.20
2018-11-13T15:34:08.990Z,91.80
2018-11-13T15:36:45.573Z,92.10
2018-11-13T15:39:36.003Z,92.30
2018-11-13T15:42:16.645Z,92.10
2018-11-13T15:44:52.012Z,92.20
2018-11-13T15:47:30.987Z,92.60
2018-11-13T15:50:06.625Z,92.90
2018-11-13T15:52:39.195Z,92.40
2018-11-13T15:55:21.354Z,92.90
2018-11-13T15:57:51.438Z,92.90
2018-11-13T16:03:55.725Z,93.20
2018-11-13T16:11:37.839Z,93.30
2018-11-13T16:14:12.629Z,93.40
2018-11-13T16:16:51.585Z,93.90
2018-11-13T16:19:31.595Z,94.00
2018-11-13T16:22:06.287Z,94.20
2018-11-13T16:24:42.445Z,94.40
2018-11-13T16:30:26.921Z,93.90
2018-11-13T16:33:08.617Z,94.00
2018-11-13T16:35:44.540Z,93.80
2018-11-13T16:38:23.741Z,94.10
2018-11-13T16:40:56.202Z,94.30
2018-11-13T16:43:46.257Z,94.10
2018-11-13T16:46:21.267Z,94.50
2018-11-13T16:48:51.238Z,94.30
2018-11-13T16:51:29.376Z,94.50
2018-11-13T16:54:09.346Z,94.60
2018-11-13T16:57:01.523Z,94.60
2018-11-13T16:59:42.087Z,94.90
2018-11-13T17:02:21.451Z,95.00
2018-11-13T17:05:10.017Z,95.40
2018-11-13T17:07:40.518Z,95.30
2018-11-13T17:10:25.752Z,95.50
2018-11-13T17:12:56.074Z,95.70
2018-11-13T17:15:27.796Z,96.10
2018-11-13T17:18:05.474Z,96.30
2018-11-13T17:20:35.605Z,96.50
2018-11-13T17:23:07.866Z,97.10
2018-11-13T17:25:49.925Z,97.50
2018-11-13T17:28:26.631Z,97.90
2018-11-13T17:30:56.767Z,98.20
2018-11-13T17:33:34.909Z,98.30
2018-11-13T17:36:05.743Z,98.80
2018-11-13T17:38:40.970Z,99.10
2018-11-13T17:41:12.742Z,99.20
2018-11-13T17:43:46.033Z,99.70
2018-11-13T17:46:20.761Z,99.70
2018-11-13T17:48:58.590Z,99.50
2018-11-13T17:51:40.009Z,99.60
2018-11-13T17:54:13.741Z,99.30
2018-11-13T17:56:53.447Z,99.00
2018-11-13T17:59:33.319Z,98.90
2018-11-13T18:02:04.740Z,98.90
2018-11-13T18:04:34.970Z,99.00
2018-11-13T18:07:06.388Z,99.00
2018-11-13T18:09:38.063Z,99.20
2018-11-13T18:12:20.993Z,99.50
2018-11-13T18:14:53.201Z,99.50
2018-11-13T18:17:27.079Z,99.90
2018-11-13T18:20:02.115Z,99.90
2018-11-13T18:23:07.836Z,99.90
2018-11-13T18:25:50.243Z,99.90
2018-11-13T18:28:52.376Z,99.90
2018-11-13T18:37:54.385Z,99.90
2018-11-13T18:43:27.161Z,99.90
2018-11-13T18:49:23.635Z,99.90
2018-11-13T18:52:04.979Z,99.90
2018-11-13T18:54:52.921Z,99.90
2018-11-13T18:57:33.401Z,99.90
2018-11-13T19:00:54.997Z,99.90
2018-11-13T19:03:32.063Z,99.90
2018-11-13T19:06:23.277Z,99.90
2018-11-13T19:09:09.939Z,99.90
2018-11-13T19:11:50.619Z,99.90
2018-11-13T19:14:35.197Z,99.90
2018-11-13T19:17:15.899Z,99.90
2018-11-13T19:20:08.804Z,99.90
2018-11-13T19:22:49.404Z,99.90
2018-11-13T19:25:32.516Z,99.90
2018-11-13T19:28:04.761Z,99.90
2018-11-13T19:30:47.812Z,99.90
2018-11-13T19:36:26.440Z,99.90
2018-11-13T19:39:09.135Z,99.90
2018-11-13T19:41:44.238Z,99.90
2018-11-13T19:44:18.261Z,99.90
2018-11-13T19:52:08.705Z,99.90
2018-11-13T19:54:51.686Z,99.90
2018-11-13T19:57:53.907Z,99.90
2018-11-13T20:00:53.539Z,99.90
2018-11-13T20:03:40.004Z,99.90
2018-11-13T20:06:19.534Z,99.90
2018-11-13T20:12:44.730Z,99.90
2018-11-13T20:15:40.062Z,99.90
2018-11-13T20:18:25.254Z,99.90
2018-11-13T20:20:57.361Z,99.90
2018-11-13T20:23:39.566Z,99.90
2018-11-13T20:26:20.402Z,99.90
2018-11-13T20:29:04.721Z,99.90
2018-11-13T20:31:49.789Z,99.90
2018-11-13T20:34:36.950Z,99.90
2018-11-13T20:37:19.229Z,99.90
2018-11-13T20:40:08.495Z,99.90
2018-11-13T20:42:57.766Z,99.90
2018-11-13T20:45:40.046Z,99.90
2018-11-13T20:56:21.680Z,99.90
2018-11-13T20:59:05.095Z,99.90
2018-11-13T21:01:48.676Z,99.90
2018-11-13T21:04:30.880Z,99.90
2018-11-13T21:07:10.447Z,99.90
2018-11-13T21:09:49.302Z,99.90
2018-11-13T21:12:26.230Z,99.90
2018-11-13T21:15:15.304Z,99.90
2018-11-13T21:17:48.607Z,99.90
2018-11-13T21:20:22.442Z,99.90
2018-11-13T21:25:40.166Z,99.90
2018-11-13T21:31:02.819Z,99.90
2018-11-13T21:33:41.276Z,99.90
2018-11-13T21:36:15.357Z,99.90
2018-11-13T21:38:55.093Z,99.90
2018-11-13T21:41:38.126Z,99.90
2018-11-13T21:44:17.888Z,99.90
2018-11-13T21:46:54.755Z,99.90
2018-11-13T21:49:31.655Z,99.90
2018-11-13T21:55:30.129Z,99.90
2018-11-13T21:58:05.194Z,99.90
2018-11-13T22:01:32.011Z,99.90
2018-11-13T22:04:27.240Z,99.90
2018-11-13T22:07:13.874Z,99.90
2018-11-13T22:09:55.517Z,99.90
2018-11-13T22:12:36.367Z,99.90
2018-11-13T22:15:25.619Z,99.90
2018-11-13T22:18:03.087Z,99.90
2018-11-13T22:20:43.621Z,99.90
2018-11-13T22:23:17.821Z,99.90
2018-11-13T22:25:54.197Z,99.90
2018-11-13T22:28:27.811Z,99.90
2018-11-13T22:31:06.764Z,99.90
2018-11-13T22:33:45.723Z,99.90
2018-11-13T22:40:14.128Z,99.90
2018-11-13T22:42:59.448Z,99.90
2018-11-13T22:45:52.532Z,99.90
2018-11-13T22:48:43.569Z,99.90
2018-11-13T22:51:31.449Z,99.90
2018-11-13T22:54:24.379Z,99.90
2018-11-13T22:57:12.196Z,99.90
2018-11-13T22:59:55.361Z,99.90
2018-11-13T23:03:06.630Z,99.90
2018-11-13T23:05:53.895Z,99.90
2018-11-13T23:08:44.728Z,99.90
2018-11-13T23:11:20.356Z,99.90
2018-11-13T23:14:20.652Z,99.90
2018-11-13T23:17:10.649Z,99.90
2018-11-13T23:19:50.899Z,99.90
2018-11-13T23:25:58.474Z,99.90
2018-11-13T23:29:28.945Z,99.90
2018-11-13T23:32:14.472Z,99.90
2018-11-13T23:38:12.631Z,99.90
2018-11-13T23:40:53.612Z,99.90
2018-11-13T23:46:48.412Z,99.90
2018-11-13T23:52:53.015Z,99.90
2018-11-13T23:55:37.120Z,99.90
2018-11-13T23:58:10.786Z,99.90
